Time;durP1;ratioP1;P1;durP2;ratioP2;P2;SDS_P1;SDS_P2;PMS_P1;PMS_P2;Temp;Humidity;BMP_temperature;BMP_pressure;BME280_temperature;BME280_humidity;BME280_pressure;Samples;Min_cycle;Max_cycle;Signal;HPM_P1;HPM_P2
2023/06/11 00:00:54;;;;;;;11.57;5.88;;;;;;;;;;5028861;28;20481;-61
2023/06/11 00:03:21;;;;;;;8.77;5.32;;;;;;;;;;5029127;28;20018;-60
2023/06/11 00:05:46;;;;;;;9.35;5.95;;;;;;;;;;5021335;28;20548;-60
2023/06/11 00:08:12;;;;;;;9.55;5.68;;;;;;;;;;5019129;28;20025;-61
2023/06/11 00:10:37;;;;;;;8.48;5.15;;;;;;;;;;5019576;28;20025;-60
2023/06/11 00:13:02;;;;;;;9.32;5.20;;;;;;;;;;5034523;28;20041;-60
2023/06/11 00:15:27;;;;;;;9.70;5.22;;;;;;;;;;5035157;28;20026;-61
2023/06/11 00:17:52;;;;;;;10.30;5.33;;;;;;;;;;5019899;28;20021;-62
2023/06/11 00:20:17;;;;;;;9.20;4.93;;;;;;;;;;5019918;28;21506;-61
2023/06/11 00:22:42;;;;;;;8.57;5.10;;;;;;;;;;5025317;28;20021;-61
2023/06/11 00:25:08;;;;;;;8.82;5.25;;;;;;;;;;5025187;28;20030;-62
2023/06/11 00:27:35;;;;;;;10.18;5.43;;;;;;;;;;5020077;28;20402;-62
2023/06/11 00:30:03;;;;;;;;;;;;;;;;;;5022120;28;20079;-62
2023/06/11 00:32:28;;;;;;;9.40;5.50;;;;;;;;;;5021502;28;20302;-62
2023/06/11 00:34:53;;;;;;;9.40;5.30;;;;;;;;;;5010637;28;20026;-61
2023/06/11 00:37:18;;;;;;;10.75;6.45;;;;;;;;;;5010932;28;20037;-61
2023/06/11 00:39:43;;;;;;;11.60;6.35;;;;;;;;;;5022252;28;20022;-62
2023/06/11 00:42:10;;;;;;;9.80;5.93;;;;;;;;;;5017383;28;20478;-62
2023/06/11 00:44:36;;;;;;;10.07;5.55;;;;;;;;;;5023650;28;20017;-61
2023/06/11 00:47:01;;;;;;;11.68;5.72;;;;;;;;;;5023956;28;20032;-62
2023/06/11 00:49:27;;;;;;;10.97;6.20;;;;;;;;;;5022899;28;20017;-62
2023/06/11 00:51:52;;;;;;;9.82;6.15;;;;;;;;;;5020871;28;20029;-61
2023/06/11 00:54:17;;;;;;;10.97;6.27;;;;;;;;;;5022532;28;20025;-61
2023/06/11 00:56:43;;;;;;;9.90;5.95;;;;;;;;;;5024500;28;20045;-62
2023/06/11 00:59:09;;;;;;;10.45;6.07;;;;;;;;;;5020945;28;20037;-62
2023/06/11 01:01:36;;;;;;;10.93;6.80;;;;;;;;;;5023461;28;20508;-62
2023/06/11 01:04:01;;;;;;;10.35;6.38;;;;;;;;;;5022906;28;20053;-62
2023/06/11 01:06:29;;;;;;;9.88;6.47;;;;;;;;;;5022393;28;20052;-61
2023/06/11 01:08:59;;;;;;;10.75;6.32;;;;;;;;;;5021940;28;20120;-61
2023/06/11 01:11:27;;;;;;;10.52;6.20;;;;;;;;;;5029017;28;20358;-62
2023/06/11 01:13:52;;;;;;;10.77;5.97;;;;;;;;;;5019832;28;20029;-61
2023/06/11 01:16:42;;;;;;;10.02;6.13;;;;;;;;;;5027827;28;20112;-61
2023/06/11 01:19:44;;;;;;;10.15;5.88;;;;;;;;;;5036198;28;20056;-62
2023/06/11 01:22:15;;;;;;;11.10;6.20;;;;;;;;;;5019368;28;20028;-61
2023/06/11 01:24:43;;;;;;;10.73;5.85;;;;;;;;;;5022708;28;20044;-61
2023/06/11 01:27:10;;;;;;;8.40;5.75;;;;;;;;;;5027456;28;20045;-61
2023/06/11 01:29:38;;;;;;;9.85;4.93;;;;;;;;;;5027813;28;20029;-61
2023/06/11 01:32:04;;;;;;;9.85;5.35;;;;;;;;;;5026557;28;20018;-62
2023/06/11 01:34:29;;;;;;;10.07;5.70;;;;;;;;;;5039511;28;20024;-62
2023/06/11 01:36:54;;;;;;;9.43;5.65;;;;;;;;;;5028676;28;20026;-61
2023/06/11 01:39:19;;;;;;;9.50;5.20;;;;;;;;;;5022674;28;20030;-61
2023/06/11 01:41:45;;;;;;;10.27;5.20;;;;;;;;;;5026636;28;20500;-62
2023/06/11 01:44:10;;;;;;;9.98;4.53;;;;;;;;;;5027057;28;20025;-61
2023/06/11 01:46:35;;;;;;;8.25;4.93;;;;;;;;;;5028594;28;20017;-61
2023/06/11 01:49:00;;;;;;;8.10;4.33;;;;;;;;;;5022005;28;20493;-61
2023/06/11 01:51:26;;;;;;;8.18;4.50;;;;;;;;;;5027235;28;20024;-61
2023/06/11 01:53:51;;;;;;;8.93;4.22;;;;;;;;;;5019247;28;20025;-60
2023/06/11 01:56:16;;;;;;;7.00;3.97;;;;;;;;;;5021280;28;20022;-60
2023/06/11 01:58:45;;;;;;;6.57;4.00;;;;;;;;;;5025846;28;20438;-62
2023/06/11 02:01:10;;;;;;;7.57;3.72;;;;;;;;;;5020913;28;20018;-60
2023/06/11 02:03:35;;;;;;;8.03;3.80;;;;;;;;;;5031177;28;20029;-61
2023/06/11 02:06:00;;;;;;;9.30;3.97;;;;;;;;;;5026327;28;20025;-61
2023/06/11 02:08:26;;;;;;;7.43;3.80;;;;;;;;;;5022386;28;20034;-61
2023/06/11 02:10:51;;;;;;;7.22;3.90;;;;;;;;;;5029218;28;20378;-61
2023/06/11 02:13:16;;;;;;;8.63;3.95;;;;;;;;;;5030720;28;20489;-62
2023/06/11 02:15:41;;;;;;;10.07;4.10;;;;;;;;;;5029522;28;20044;-61
2023/06/11 02:18:06;;;;;;;8.15;4.20;;;;;;;;;;5021796;28;20382;-61
2023/06/11 02:20:32;;;;;;;9.85;4.72;;;;;;;;;;5025818;28;20433;-61
2023/06/11 02:22:57;;;;;;;8.23;4.70;;;;;;;;;;5026819;28;20105;-61
2023/06/11 02:25:22;;;;;;;9.55;4.85;;;;;;;;;;5025391;28;20040;-61
2023/06/11 02:27:48;;;;;;;9.88;4.57;;;;;;;;;;5014744;28;20563;-61
2023/06/11 02:30:13;;;;;;;10.32;5.25;;;;;;;;;;5027227;28;20096;-61
2023/06/11 02:32:40;;;;;;;9.48;5.63;;;;;;;;;;5023897;28;20029;-61
2023/06/11 02:35:05;;;;;;;10.73;5.97;;;;;;;;;;5024554;28;20473;-62
2023/06/11 02:37:30;;;;;;;11.88;6.75;;;;;;;;;;5018079;28;20052;-61
2023/06/11 02:39:55;;;;;;;11.07;6.47;;;;;;;;;;5019891;28;20076;-63
2023/06/11 02:42:20;;;;;;;11.17;6.73;;;;;;;;;;5021634;28;20025;-63
2023/06/11 02:44:46;;;;;;;12.60;5.53;;;;;;;;;;5029762;28;20138;-63
2023/06/11 02:47:11;;;;;;;9.32;5.20;;;;;;;;;;5028505;28;20017;-63
2023/06/11 02:49:36;;;;;;;9.90;5.90;;;;;;;;;;5028257;28;20021;-63
2023/06/11 02:52:01;;;;;;;9.68;6.30;;;;;;;;;;5021136;28;20108;-64
2023/06/11 02:54:26;;;;;;;12.17;6.03;;;;;;;;;;5018582;28;20029;-64
2023/06/11 02:56:51;;;;;;;10.13;5.82;;;;;;;;;;5021587;28;20367;-64
2023/06/11 02:59:16;;;;;;;11.73;6.38;;;;;;;;;;5029318;28;20087;-63
2023/06/11 03:01:42;;;;;;;11.60;6.87;;;;;;;;;;5023125;28;20033;-64
2023/06/11 03:04:07;;;;;;;11.90;7.00;;;;;;;;;;5017834;28;20444;-63
2023/06/11 03:06:33;;;;;;;11.23;6.20;;;;;;;;;;5029794;28;20017;-64
2023/06/11 03:08:58;;;;;;;12.60;6.90;;;;;;;;;;5012458;28;20052;-63
2023/06/11 03:11:23;;;;;;;11.70;6.65;;;;;;;;;;5010679;28;20014;-63
2023/06/11 03:13:48;;;;;;;13.07;6.40;;;;;;;;;;5027446;28;20048;-64
2023/06/11 03:16:13;;;;;;;10.93;6.60;;;;;;;;;;5029560;28;20382;-64
2023/06/11 03:18:38;;;;;;;11.73;6.30;;;;;;;;;;5022574;28;20029;-64
2023/06/11 03:21:03;;;;;;;10.00;6.07;;;;;;;;;;5021663;28;20029;-64
2023/06/11 03:23:29;;;;;;;11.48;6.30;;;;;;;;;;5030750;28;20088;-64
2023/06/11 03:25:54;;;;;;;10.80;6.10;;;;;;;;;;5019713;28;20026;-63
2023/06/11 03:28:19;;;;;;;10.90;6.10;;;;;;;;;;5008506;28;20461;-63
2023/06/11 03:30:44;;;;;;;12.40;5.93;;;;;;;;;;5016132;28;20546;-63
2023/06/11 03:33:09;;;;;;;11.27;5.73;;;;;;;;;;5011612;28;20707;-64
2023/06/11 03:35:35;;;;;;;10.00;5.57;;;;;;;;;;5027158;28;20026;-64
2023/06/11 03:38:00;;;;;;;9.10;5.60;;;;;;;;;;5016513;28;20927;-64
2023/06/11 03:40:25;;;;;;;9.50;5.47;;;;;;;;;;5015894;28;20029;-64
2023/06/11 03:42:50;;;;;;;9.30;5.63;;;;;;;;;;5019919;28;20033;-64
2023/06/11 03:45:15;;;;;;;9.52;5.60;;;;;;;;;;5022953;28;20203;-63
2023/06/11 03:47:40;;;;;;;10.10;5.30;;;;;;;;;;5025255;28;20394;-64
2023/06/11 03:50:07;;;;;;;7.93;4.60;;;;;;;;;;5022956;28;20022;-63
2023/06/11 03:52:32;;;;;;;8.57;5.53;;;;;;;;;;5017159;28;20022;-64
2023/06/11 03:54:57;;;;;;;8.77;5.38;;;;;;;;;;5016365;28;20378;-64
2023/06/11 03:57:22;;;;;;;8.07;4.67;;;;;;;;;;5019245;28;20045;-64
2023/06/11 03:59:47;;;;;;;9.07;4.80;;;;;;;;;;5024369;28;20362;-64
2023/06/11 04:02:12;;;;;;;8.17;4.93;;;;;;;;;;5019894;28;20029;-64
2023/06/11 04:04:38;;;;;;;10.23;4.90;;;;;;;;;;5021509;28;20029;-64
2023/06/11 04:07:03;;;;;;;8.38;4.95;;;;;;;;;;5016391;28;20022;-64
2023/06/11 04:09:28;;;;;;;10.07;5.18;;;;;;;;;;5019817;28;20678;-63
2023/06/11 04:11:53;;;;;;;8.97;4.70;;;;;;;;;;5013301;28;20476;-63
2023/06/11 04:14:18;;;;;;;8.27;4.72;;;;;;;;;;5028985;28;20075;-63
2023/06/11 04:16:44;;;;;;;9.20;4.80;;;;;;;;;;5022067;28;20017;-63
2023/06/11 04:19:09;;;;;;;8.23;4.43;;;;;;;;;;5026810;28;20017;-64
2023/06/11 04:21:34;;;;;;;8.80;4.20;;;;;;;;;;5023865;28;20029;-63
2023/06/11 04:24:00;;;;;;;8.75;4.85;;;;;;;;;;5019801;28;20056;-64
2023/06/11 04:26:25;;;;;;;9.55;5.40;;;;;;;;;;5017770;28;20017;-63
2023/06/11 04:28:51;;;;;;;10.70;6.00;;;;;;;;;;5021695;28;20489;-63
2023/06/11 04:31:16;;;;;;;10.60;5.55;;;;;;;;;;5020189;28;20559;-63
2023/06/11 04:33:41;;;;;;;10.35;5.72;;;;;;;;;;5021465;28;20112;-63
2023/06/11 04:36:07;;;;;;;9.93;5.20;;;;;;;;;;5025262;28;20095;-63
2023/06/11 04:38:37;;;;;;;9.80;5.13;;;;;;;;;;5035124;28;20017;-63
2023/06/11 04:41:05;;;;;;;8.93;5.18;;;;;;;;;;5031223;28;20049;-63
2023/06/11 04:43:33;;;;;;;10.80;5.15;;;;;;;;;;5026159;28;20021;-63
2023/06/11 04:45:59;;;;;;;8.70;4.90;;;;;;;;;;5028676;28;20096;-63
2023/06/11 04:48:25;;;;;;;8.43;5.00;;;;;;;;;;5033191;28;20436;-62
2023/06/11 04:50:51;;;;;;;10.15;4.75;;;;;;;;;;5021706;28;20048;-63
2023/06/11 04:53:21;;;;;;;;;;;;;;;;;;5027914;28;20018;-63
2023/06/11 04:55:47;;;;;;;10.82;4.63;;;;;;;;;;5027452;28;19909;-63
2023/06/11 04:58:12;;;;;;;7.03;4.03;;;;;;;;;;5023901;28;20029;-62
2023/06/11 05:00:37;;;;;;;8.95;4.47;;;;;;;;;;5019155;28;20054;-63
2023/06/11 05:03:03;;;;;;;8.35;4.45;;;;;;;;;;5013908;28;20382;-63
2023/06/11 05:05:28;;;;;;;12.43;4.80;;;;;;;;;;5027352;28;20034;-63
2023/06/11 05:07:53;;;;;;;7.73;4.20;;;;;;;;;;5018317;28;20041;-63
2023/06/11 05:10:18;;;;;;;8.53;3.90;;;;;;;;;;5031592;28;20010;-63
2023/06/11 05:12:43;;;;;;;9.47;4.03;;;;;;;;;;5028760;28;20477;-63
2023/06/11 05:15:09;;;;;;;9.02;4.07;;;;;;;;;;5029487;28;20420;-63
2023/06/11 05:17:34;;;;;;;7.70;3.97;;;;;;;;;;5028387;28;20426;-63
2023/06/11 05:19:59;;;;;;;7.10;4.28;;;;;;;;;;5026193;28;20045;-63
2023/06/11 05:22:24;;;;;;;9.33;4.00;;;;;;;;;;5018434;28;20040;-63
2023/06/11 05:24:50;;;;;;;8.83;4.60;;;;;;;;;;5020178;28;20059;-63
2023/06/11 05:27:15;;;;;;;7.47;4.10;;;;;;;;;;5015943;28;20076;-63
2023/06/11 05:29:40;;;;;;;8.02;4.50;;;;;;;;;;5026499;28;20377;-64
2023/06/11 05:32:08;;;;;;;9.77;4.32;;;;;;;;;;5012554;28;20030;-63
2023/06/11 05:34:34;;;;;;;7.40;4.07;;;;;;;;;;5030204;28;20030;-63
2023/06/11 05:36:59;;;;;;;10.07;4.57;;;;;;;;;;5025580;28;20021;-62
2023/06/11 05:39:24;;;;;;;7.27;3.63;;;;;;;;;;5022741;28;20110;-62
2023/06/11 05:41:49;;;;;;;9.40;4.40;;;;;;;;;;5027561;28;20067;-63
2023/06/11 05:44:16;;;;;;;10.57;4.10;;;;;;;;;;5022432;28;20148;-63
2023/06/11 05:46:41;;;;;;;;;;;;;;;;;;5019121;28;20489;-63
2023/06/11 05:49:06;;;;;;;9.30;3.95;;;;;;;;;;5022893;28;20377;-64
2023/06/11 05:51:31;;;;;;;12.13;4.13;;;;;;;;;;5023922;28;20049;-64
2023/06/11 05:53:59;;;;;;;9.27;3.60;;;;;;;;;;5022329;28;20026;-63
2023/06/11 05:56:25;;;;;;;8.10;3.85;;;;;;;;;;5021846;28;20109;-64
2023/06/11 05:58:50;;;;;;;7.43;4.15;;;;;;;;;;5021414;28;20037;-63
2023/06/11 06:01:15;;;;;;;7.23;3.67;;;;;;;;;;5027699;28;20026;-63
2023/06/11 06:03:40;;;;;;;9.93;3.97;;;;;;;;;;5015247;28;20096;-63
2023/06/11 06:06:08;;;;;;;8.43;3.80;;;;;;;;;;5026003;28;20041;-62
2023/06/11 06:08:33;;;;;;;13.18;3.92;;;;;;;;;;5023072;28;20037;-62
2023/06/11 06:10:59;;;;;;;7.32;3.70;;;;;;;;;;5022506;28;20014;-62
2023/06/11 06:13:24;;;;;;;10.65;3.78;;;;;;;;;;5030037;28;20022;-64
2023/06/11 06:15:49;;;;;;;7.88;3.25;;;;;;;;;;5024740;28;20572;-64
2023/06/11 06:18:15;;;;;;;8.03;3.87;;;;;;;;;;5021941;28;20025;-64
2023/06/11 06:20:41;;;;;;;;;;;;;;;;;;5021783;28;20493;-65
2023/06/11 06:23:06;;;;;;;7.72;3.58;;;;;;;;;;5027072;28;19916;-64
2023/06/11 06:25:31;;;;;;;7.25;3.00;;;;;;;;;;5027245;28;20071;-63
2023/06/11 06:27:56;;;;;;;9.65;3.83;;;;;;;;;;5012184;28;20124;-61
2023/06/11 06:30:22;;;;;;;9.20;3.33;;;;;;;;;;5025153;28;20013;-63
2023/06/11 06:32:47;;;;;;;8.15;3.80;;;;;;;;;;5020216;28;20042;-63
2023/06/11 06:35:12;;;;;;;8.18;3.50;;;;;;;;;;5019681;28;20026;-62
2023/06/11 06:37:37;;;;;;;7.83;3.70;;;;;;;;;;5019917;28;20848;-62
2023/06/11 06:40:03;;;;;;;8.13;3.67;;;;;;;;;;5015568;28;20010;-62
2023/06/11 06:42:28;;;;;;;;;;;;;;;;;;5031337;28;20032;-62
2023/06/11 06:44:53;;;;;;;7.55;3.67;;;;;;;;;;5024484;28;19913;-62
2023/06/11 06:47:18;;;;;;;;;;;;;;;;;;5029735;28;20017;-63
2023/06/11 06:49:44;;;;;;;8.52;3.10;;;;;;;;;;5026597;28;20396;-63
2023/06/11 06:52:11;;;;;;;7.40;3.10;;;;;;;;;;5021924;28;20030;-62
2023/06/11 06:54:36;;;;;;;8.27;3.53;;;;;;;;;;5030624;28;20030;-62
2023/06/11 06:57:01;;;;;;;10.32;3.45;;;;;;;;;;5027821;28;20025;-62
2023/06/11 06:59:26;;;;;;;7.88;2.85;;;;;;;;;;5023097;28;20422;-62
2023/06/11 07:01:51;;;;;;;7.45;3.08;;;;;;;;;;5017760;28;20116;-62
2023/06/11 07:04:17;;;;;;;7.68;3.40;;;;;;;;;;5015533;28;20029;-62
2023/06/11 07:06:42;;;;;;;6.67;3.13;;;;;;;;;;5012559;28;20537;-62
2023/06/11 07:09:07;;;;;;;6.37;2.90;;;;;;;;;;5010201;28;20707;-62
2023/06/11 07:11:32;;;;;;;8.40;3.20;;;;;;;;;;5017588;28;20026;-62
2023/06/11 07:13:57;;;;;;;8.35;2.97;;;;;;;;;;5010547;28;20022;-61
2023/06/11 07:16:22;;;;;;;6.75;3.28;;;;;;;;;;5010529;28;20121;-61
2023/06/11 07:18:47;;;;;;;6.03;2.95;;;;;;;;;;5020545;28;20070;-61
2023/06/11 07:21:14;;;;;;;6.50;3.17;;;;;;;;;;5025124;28;20396;-63
2023/06/11 07:23:40;;;;;;;7.63;3.33;;;;;;;;;;5030145;28;20492;-62
2023/06/11 07:26:05;;;;;;;8.43;3.17;;;;;;;;;;5030137;28;20017;-62
2023/06/11 07:28:30;;;;;;;7.18;3.08;;;;;;;;;;5022454;28;20033;-62
2023/06/11 07:30:55;;;;;;;6.00;3.03;;;;;;;;;;5026483;28;20481;-62
2023/06/11 07:33:20;;;;;;;6.15;3.33;;;;;;;;;;5025497;28;20030;-61
2023/06/11 07:35:48;;;;;;;8.45;3.70;;;;;;;;;;5026289;28;20041;-62
2023/06/11 07:38:14;;;;;;;11.50;3.53;;;;;;;;;;5026588;28;20070;-61
2023/06/11 07:40:39;;;;;;;8.07;3.10;;;;;;;;;;5022296;28;20654;-62
2023/06/11 07:43:04;;;;;;;6.97;3.20;;;;;;;;;;5025806;28;20024;-61
2023/06/11 07:45:29;;;;;;;8.48;3.70;;;;;;;;;;5033607;28;20489;-61
2023/06/11 07:47:54;;;;;;;6.70;3.40;;;;;;;;;;5019569;28;20025;-62
2023/06/11 07:50:19;;;;;;;;;;;;;;;;;;5026733;28;20132;-61
2023/06/11 07:52:45;;;;;;;8.90;3.30;;;;;;;;;;5028826;28;19924;-61
2023/06/11 07:55:10;;;;;;;;;;;;;;;;;;5030906;28;20511;-62
2023/06/11 07:57:35;;;;;;;8.68;3.22;;;;;;;;;;5034267;28;19912;-62
2023/06/11 08:00:00;;;;;;;6.38;3.50;;;;;;;;;;5033843;28;20025;-62
2023/06/11 08:02:26;;;;;;;5.95;3.42;;;;;;;;;;5031812;28;20036;-62
2023/06/11 08:04:51;;;;;;;5.40;2.88;;;;;;;;;;5034162;28;20104;-61
2023/06/11 08:07:16;;;;;;;8.40;3.30;;;;;;;;;;5034019;28;20021;-61
2023/06/11 08:09:41;;;;;;;;;;;;;;;;;;5033735;28;20029;-62
2023/06/11 08:12:07;;;;;;;6.18;3.22;;;;;;;;;;5033885;28;20384;-62
2023/06/11 08:14:32;;;;;;;;;;;;;;;;;;5016518;28;20032;-62
2023/06/11 08:16:57;;;;;;;6.88;3.47;;;;;;;;;;5014354;28;19909;-61
2023/06/11 08:19:22;;;;;;;;;;;;;;;;;;5020276;28;20037;-62
2023/06/11 08:21:48;;;;;;;8.07;3.78;;;;;;;;;;5034016;28;19912;-62
2023/06/11 08:24:13;;;;;;;7.93;3.40;;;;;;;;;;5033623;28;20446;-61
2023/06/11 08:26:38;;;;;;;7.23;3.40;;;;;;;;;;5034038;28;20025;-61
2023/06/11 08:29:03;;;;;;;6.00;3.30;;;;;;;;;;5033343;28;20832;-61
2023/06/11 08:31:28;;;;;;;13.65;3.83;;;;;;;;;;5033784;28;20026;-61
2023/06/11 08:33:54;;;;;;;6.00;3.53;;;;;;;;;;5033813;28;20393;-62
2023/06/11 08:36:20;;;;;;;8.70;3.50;;;;;;;;;;5029745;28;20427;-62
2023/06/11 08:38:45;;;;;;;;;;;;;;;;;;5033840;28;20021;-60
2023/06/11 08:41:10;;;;;;;8.93;3.87;;;;;;;;;;5033808;28;19912;-61
2023/06/11 08:43:35;;;;;;;7.87;3.67;;;;;;;;;;5034108;28;20048;-61
2023/06/11 08:46:00;;;;;;;6.82;3.70;;;;;;;;;;5031334;28;20047;-61
2023/06/11 08:48:28;;;;;;;6.72;3.83;;;;;;;;;;5033197;28;20503;-62
2023/06/11 08:50:54;;;;;;;9.25;3.92;;;;;;;;;;5033151;28;20025;-62
2023/06/11 08:53:19;;;;;;;8.80;3.95;;;;;;;;;;5033283;28;20075;-62
2023/06/11 08:55:45;;;;;;;10.07;3.70;;;;;;;;;;5028696;28;20148;-62
2023/06/11 08:58:11;;;;;;;8.23;3.90;;;;;;;;;;5030823;28;20025;-61
2023/06/11 09:00:37;;;;;;;9.20;3.53;;;;;;;;;;5033230;28;20112;-62
2023/06/11 09:03:03;;;;;;;6.82;3.75;;;;;;;;;;5018333;28;20097;-62
2023/06/11 09:05:28;;;;;;;6.43;3.55;;;;;;;;;;5013607;28;20029;-62
2023/06/11 09:07:53;;;;;;;7.67;3.60;;;;;;;;;;5013937;28;20041;-63
2023/06/11 09:10:18;;;;;;;;;;;;;;;;;;5031808;28;20029;-63
2023/06/11 09:12:43;;;;;;;6.60;3.70;;;;;;;;;;5032989;28;19988;-62
2023/06/11 09:15:09;;;;;;;6.70;3.63;;;;;;;;;;5024903;28;20508;-62
2023/06/11 09:17:35;;;;;;;5.78;3.70;;;;;;;;;;5024693;28;20109;-63
2023/06/11 09:20:00;;;;;;;;;;;;;;;;;;5032770;28;20112;-62
2023/06/11 09:22:26;;;;;;;6.45;3.65;;;;;;;;;;5023106;28;20372;-62
2023/06/11 09:24:51;;;;;;;7.47;3.90;;;;;;;;;;5029546;28;20105;-63
2023/06/11 09:27:19;;;;;;;6.40;3.70;;;;;;;;;;5033003;28;20021;-60
2023/06/11 09:29:45;;;;;;;8.00;3.70;;;;;;;;;;5032069;28;20469;-60
2023/06/11 09:32:10;;;;;;;7.30;3.63;;;;;;;;;;5032952;28;20028;-61
2023/06/11 09:34:36;;;;;;;6.43;3.65;;;;;;;;;;5032823;28;20018;-63
2023/06/11 09:37:02;;;;;;;;;;;;;;;;;;5031796;28;20717;-62
2023/06/11 09:39:28;;;;;;;7.30;3.55;;;;;;;;;;5021675;28;20409;-63
2023/06/11 09:41:53;;;;;;;6.70;3.33;;;;;;;;;;5032894;28;20052;-63
2023/06/11 09:44:18;;;;;;;;;;;;;;;;;;5025697;28;20064;-63
2023/06/11 09:46:44;;;;;;;8.02;3.38;;;;;;;;;;5030091;28;20010;-62
2023/06/11 09:49:10;;;;;;;8.88;5.00;;;;;;;;;;5022048;28;20022;-62
2023/06/11 09:51:38;;;;;;;8.90;3.90;;;;;;;;;;5023833;28;20481;-62
2023/06/11 09:54:04;;;;;;;8.43;3.47;;;;;;;;;;5031244;28;20112;-61
2023/06/11 09:56:30;;;;;;;6.50;3.58;;;;;;;;;;5031541;28;20072;-60
2023/06/11 09:58:56;;;;;;;5.75;3.58;;;;;;;;;;5031963;28;20417;-61
2023/06/11 10:01:22;;;;;;;7.05;3.50;;;;;;;;;;5028289;28;20045;-62
2023/06/11 10:03:48;;;;;;;7.47;3.35;;;;;;;;;;5032909;28;20483;-63
2023/06/11 10:06:16;;;;;;;7.10;3.70;;;;;;;;;;5031476;28;20485;-62
2023/06/11 10:08:44;;;;;;;6.55;3.65;;;;;;;;;;5032036;28;20034;-62
2023/06/11 10:11:09;;;;;;;6.55;3.60;;;;;;;;;;5031778;28;20025;-61
2023/06/11 10:13:34;;;;;;;6.10;3.47;;;;;;;;;;5027687;28;20034;-62
2023/06/11 10:16:03;;;;;;;6.97;3.80;;;;;;;;;;5020306;28;20033;-62
2023/06/11 10:18:30;;;;;;;6.80;3.60;;;;;;;;;;5023059;28;20036;-62
2023/06/11 10:20:58;;;;;;;7.80;3.90;;;;;;;;;;5012019;28;20090;-61
2023/06/11 10:23:33;;;;;;;8.15;4.00;;;;;;;;;;5026301;28;20022;-61
2023/06/11 10:25:59;;;;;;;5.93;3.30;;;;;;;;;;5023165;28;20101;-61
2023/06/11 10:28:37;;;;;;;7.03;3.20;;;;;;;;;;5024296;28;20063;-61
2023/06/11 10:31:03;;;;;;;5.72;3.40;;;;;;;;;;5029697;28;20022;-62
2023/06/11 10:33:54;;;;;;;7.13;3.53;;;;;;;;;;5031708;28;20026;-62
2023/06/11 10:36:23;;;;;;;6.35;3.65;;;;;;;;;;5023169;28;20531;-60
2023/06/11 10:38:49;;;;;;;6.45;3.45;;;;;;;;;;5031132;28;20034;-62
2023/06/11 10:41:14;;;;;;;6.05;3.25;;;;;;;;;;5021547;28;20018;-60
2023/06/11 10:43:40;;;;;;;;;;;;;;;;;;5025588;28;20060;-59
2023/06/11 10:46:12;;;;;;;8.98;3.45;;;;;;;;;;5020209;28;19936;-60
2023/06/11 10:48:43;;;;;;;8.57;3.80;;;;;;;;;;5010782;28;20048;-62
2023/06/11 10:51:12;;;;;;;6.97;3.13;;;;;;;;;;5010946;28;20551;-63
2023/06/11 10:53:40;;;;;;;5.70;3.50;;;;;;;;;;5011414;28;20034;-62
2023/06/11 10:56:06;;;;;;;6.38;3.55;;;;;;;;;;5019042;28;20026;-60
2023/06/11 10:58:32;;;;;;;7.60;3.40;;;;;;;;;;5031084;28;20362;-61
2023/06/11 11:00:58;;;;;;;;;;;;;;;;;;5031452;28;20108;-61
2023/06/11 11:03:24;;;;;;;7.45;3.65;;;;;;;;;;5018523;28;20268;-61
2023/06/11 11:05:49;;;;;;;5.85;3.35;;;;;;;;;;5014503;28;20017;-62
2023/06/11 11:08:15;;;;;;;5.75;3.50;;;;;;;;;;5030941;28;20075;-61
2023/06/11 11:10:40;;;;;;;;;;;;;;;;;;5029099;28;20419;-61
2023/06/11 11:13:05;;;;;;;6.57;3.53;;;;;;;;;;5029058;28;20011;-62
2023/06/11 11:15:30;;;;;;;10.07;3.88;;;;;;;;;;5030504;28;20030;-61
2023/06/11 11:17:56;;;;;;;;;;;;;;;;;;5013381;28;20121;-60
2023/06/11 11:20:21;;;;;;;9.68;3.60;;;;;;;;;;5010674;28;20001;-61
2023/06/11 11:22:54;;;;;;;6.93;3.50;;;;;;;;;;5011243;28;20014;-63
2023/06/11 11:25:29;;;;;;;6.57;3.63;;;;;;;;;;5011117;28;20020;-62
2023/06/11 11:27:54;;;;;;;7.60;3.63;;;;;;;;;;5011869;28;20112;-62
2023/06/11 11:30:19;;;;;;;6.47;3.30;;;;;;;;;;5028976;28;20563;-62
2023/06/11 11:32:44;;;;;;;;;;;;;;;;;;5031193;28;20014;-61
2023/06/11 11:35:11;;;;;;;6.65;3.38;;;;;;;;;;5025207;28;19908;-61
2023/06/11 11:37:36;;;;;;;6.82;3.45;;;;;;;;;;5022138;28;20037;-61
2023/06/11 11:40:07;;;;;;;6.70;3.80;;;;;;;;;;5016461;28;20080;-61
2023/06/11 11:42:43;;;;;;;6.22;3.42;;;;;;;;;;5021981;28;20072;-61
2023/06/11 11:45:11;;;;;;;7.15;3.65;;;;;;;;;;5012272;28;20053;-61
2023/06/11 11:47:36;;;;;;;6.30;3.50;;;;;;;;;;5009271;28;20131;-62
2023/06/11 11:50:01;;;;;;;;;;;;;;;;;;5011779;28;20097;-63
2023/06/11 11:52:27;;;;;;;21.65;3.72;;;;;;;;;;5018449;28;19912;-62
2023/06/11 11:54:52;;;;;;;;;;;;;;;;;;5020779;28;20030;-63
2023/06/11 11:57:20;;;;;;;7.25;3.75;;;;;;;;;;5033386;28;19960;-62
2023/06/11 11:59:46;;;;;;;6.95;3.85;;;;;;;;;;5026214;28;20014;-61
2023/06/11 12:02:11;;;;;;;8.37;3.63;;;;;;;;;;5018553;28;20025;-63
2023/06/11 12:04:40;;;;;;;6.47;3.80;;;;;;;;;;5019438;28;20604;-63
2023/06/11 12:07:06;;;;;;;7.95;3.83;;;;;;;;;;5017656;28;20033;-62
2023/06/11 12:09:32;;;;;;;7.60;3.47;;;;;;;;;;5021060;28;20528;-61
2023/06/11 12:11:57;;;;;;;6.03;3.65;;;;;;;;;;5024176;28;20060;-61
2023/06/11 12:14:22;;;;;;;;;;;;;;;;;;5023664;28;20473;-61
2023/06/11 12:16:48;;;;;;;7.07;3.95;;;;;;;;;;5028574;28;19999;-63
2023/06/11 12:19:15;;;;;;;;;;;;;;;;;;5018536;28;20022;-61
2023/06/11 12:21:40;;;;;;;6.57;3.67;;;;;;;;;;5026262;28;19920;-61
2023/06/11 12:24:09;;;;;;;6.72;3.85;;;;;;;;;;5026760;28;20029;-61
2023/06/11 12:26:34;;;;;;;6.40;3.60;;;;;;;;;;5017691;28;20061;-61
2023/06/11 12:29:00;;;;;;;;;;;;;;;;;;5021200;28;20135;-61
2023/06/11 12:31:25;;;;;;;6.95;3.75;;;;;;;;;;5024938;28;19912;-61
2023/06/11 12:33:50;;;;;;;;;;;;;;;;;;5025743;28;20121;-60
2023/06/11 12:36:16;;;;;;;8.02;3.97;;;;;;;;;;5023765;28;19925;-60
2023/06/11 12:38:41;;;;;;;;;;;;;;;;;;5030679;28;20022;-62
2023/06/11 12:41:06;;;;;;;7.20;3.83;;;;;;;;;;5010624;28;19909;-61
2023/06/11 12:43:31;;;;;;;;;;;;;;;;;;5022137;28;20712;-62
2023/06/11 12:45:56;;;;;;;8.13;3.83;;;;;;;;;;5023247;28;19924;-62
2023/06/11 12:48:21;;;;;;;;;;;;;;;;;;5019913;28;20392;-63
2023/06/11 12:50:46;;;;;;;9.17;3.80;;;;;;;;;;5020404;28;19936;-61
2023/06/11 12:53:12;;;;;;;;;;;;;;;;;;5033171;28;20029;-62
2023/06/11 12:55:37;;;;;;;9.07;4.05;;;;;;;;;;5019604;28;19913;-62
2023/06/11 12:58:02;;;;;;;;;;;;;;;;;;5023717;28;20043;-62
2023/06/11 13:00:29;;;;;;;7.97;4.03;;;;;;;;;;5013808;28;19921;-63
2023/06/11 13:02:56;;;;;;;10.40;4.57;;;;;;;;;;5030872;28;20057;-63
2023/06/11 13:05:21;;;;;;;;;;;;;;;;;;5022832;28;20017;-61
2023/06/11 13:07:48;;;;;;;7.32;4.25;;;;;;;;;;5014760;28;19917;-61
2023/06/11 13:10:14;;;;;;;8.60;4.25;;;;;;;;;;5012603;28;20088;-60
2023/06/11 13:12:39;;;;;;;;;;;;;;;;;;5022436;28;20477;-60
2023/06/11 13:15:05;;;;;;;6.85;3.83;;;;;;;;;;5017968;28;19909;-61
2023/06/11 13:17:30;;;;;;;;;;;;;;;;;;5024247;28;20052;-61
2023/06/11 13:19:55;;;;;;;7.38;4.03;;;;;;;;;;5024166;28;20008;-61
2023/06/11 13:22:21;;;;;;;;;;;;;;;;;;5026419;28;20388;-61
2023/06/11 13:24:46;;;;;;;8.68;4.32;;;;;;;;;;5016866;28;20442;-61
2023/06/11 13:27:11;;;;;;;;;;;;;;;;;;5038058;28;20025;-61
2023/06/11 13:29:36;;;;;;;7.88;4.10;;;;;;;;;;5019651;28;19924;-62
2023/06/11 13:32:01;;;;;;;;;;;;;;;;;;5037233;28;20018;-60
2023/06/11 13:34:27;;;;;;;6.90;4.23;;;;;;;;;;5029266;28;20312;-61
2023/06/11 13:36:55;;;;;;;6.63;3.72;;;;;;;;;;5027471;28;20025;-61
2023/06/11 13:39:21;;;;;;;6.30;3.78;;;;;;;;;;5030243;28;20018;-61
2023/06/11 13:41:46;;;;;;;;;;;;;;;;;;5032461;28;20383;-62
2023/06/11 13:44:11;;;;;;;8.17;4.13;;;;;;;;;;5032638;28;20281;-61
2023/06/11 13:46:36;;;;;;;6.63;3.88;;;;;;;;;;5028481;28;20025;-61
2023/06/11 13:49:02;;;;;;;;;;;;;;;;;;5037235;28;20017;-61
2023/06/11 13:51:30;;;;;;;7.40;4.00;;;;;;;;;;5018560;28;19988;-61
2023/06/11 13:53:55;;;;;;;7.18;3.97;;;;;;;;;;5015475;28;20033;-62
2023/06/11 13:56:20;;;;;;;;;;;;;;;;;;5012016;28;20113;-61
2023/06/11 13:58:46;;;;;;;8.15;4.50;;;;;;;;;;5019245;28;19925;-61
2023/06/11 14:01:11;;;;;;;6.50;4.20;;;;;;;;;;5029256;28;20414;-60
2023/06/11 14:03:36;;;;;;;6.38;3.85;;;;;;;;;;5021404;28;20044;-62
2023/06/11 14:06:02;;;;;;;9.30;3.90;;;;;;;;;;5012107;28;20022;-62
2023/06/11 14:08:27;;;;;;;6.63;4.10;;;;;;;;;;5012221;28;20084;-61
2023/06/11 14:10:52;;;;;;;;;;;;;;;;;;5018123;28;20017;-61
2023/06/11 14:13:17;;;;;;;7.13;4.10;;;;;;;;;;5029406;28;19996;-61
2023/06/11 14:15:42;;;;;;;;;;;;;;;;;;5027949;28;20030;-61
2023/06/11 14:18:08;;;;;;;6.75;4.00;;;;;;;;;;5028531;28;19954;-61
2023/06/11 14:20:33;;;;;;;8.63;4.23;;;;;;;;;;5026108;28;20029;-61
2023/06/11 14:22:58;;;;;;;6.43;3.80;;;;;;;;;;5019190;28;20492;-61
2023/06/11 14:25:23;;;;;;;8.23;4.57;;;;;;;;;;5023290;28;20017;-61
2023/06/11 14:27:48;;;;;;;;;;;;;;;;;;5032606;28;20065;-61
2023/06/11 14:30:14;;;;;;;8.20;4.20;;;;;;;;;;5025052;28;19909;-62
2023/06/11 14:32:39;;;;;;;;;;;;;;;;;;5028596;28;20108;-61
2023/06/11 14:35:04;;;;;;;6.78;3.97;;;;;;;;;;5033370;28;20380;-61
2023/06/11 14:37:29;;;;;;;;;;;;;;;;;;5039041;28;20021;-61
2023/06/11 14:39:54;;;;;;;7.03;4.38;;;;;;;;;;5037099;28;19904;-61
2023/06/11 14:42:20;;;;;;;;;;;;;;;;;;5030308;28;20101;-61
2023/06/11 14:44:45;;;;;;;6.80;4.30;;;;;;;;;;5029442;28;19913;-61
2023/06/11 14:47:10;;;;;;;;;;;;;;;;;;5033386;28;20037;-61